sensor_id;sensor_type;location;lat;lon;timestamp;temperature;humidity
43087;DHT22;28708;52.224;6.924;2023-07-31T00:00:15;15.00;99.90
43087;DHT22;28708;52.224;6.924;2023-07-31T00:02:41;14.90;99.90
43087;DHT22;28708;52.224;6.924;2023-07-31T00:05:08;15.00;99.90
43087;DHT22;28708;52.224;6.924;2023-07-31T00:07:34;14.90;99.90
43087;DHT22;28708;52.224;6.924;2023-07-31T00:09:59;15.00;99.90
43087;DHT22;28708;52.224;6.924;2023-07-31T00:12:25;14.90;99.90
43087;DHT22;28708;52.224;6.924;2023-07-31T00:14:51;15.00;99.90
43087;DHT22;28708;52.224;6.924;2023-07-31T00:17:17;15.00;99.90
43087;DHT22;28708;52.224;6.924;2023-07-31T00:19:43;14.90;99.90
43087;DHT22;28708;52.224;6.924;2023-07-31T00:22:11;14.90;99.90
43087;DHT22;28708;52.224;6.924;2023-07-31T00:24:37;14.90;99.90
43087;DHT22;28708;52.224;6.924;2023-07-31T00:27:03;14.90;99.90
43087;DHT22;28708;52.224;6.924;2023-07-31T00:29:29;15.00;99.90
43087;DHT22;28708;52.224;6.924;2023-07-31T00:31:56;14.90;99.90
43087;DHT22;28708;52.224;6.924;2023-07-31T00:34:22;15.00;99.90
43087;DHT22;28708;52.224;6.924;2023-07-31T00:36:47;15.00;99.90
43087;DHT22;28708;52.224;6.924;2023-07-31T00:39:15;14.90;99.90
43087;DHT22;28708;52.224;6.924;2023-07-31T00:41:44;14.90;99.90
43087;DHT22;28708;52.224;6.924;2023-07-31T00:44:09;15.00;99.90
43087;DHT22;28708;52.224;6.924;2023-07-31T00:46:35;14.90;99.90
43087;DHT22;28708;52.224;6.924;2023-07-31T00:49:02;14.90;99.90
43087;DHT22;28708;52.224;6.924;2023-07-31T00:51:28;14.80;99.90
43087;DHT22;28708;52.224;6.924;2023-07-31T00:53:54;14.80;99.90
43087;DHT22;28708;52.224;6.924;2023-07-31T00:56:22;14.70;99.90
43087;DHT22;28708;52.224;6.924;2023-07-31T00:58:47;14.70;99.90
43087;DHT22;28708;52.224;6.924;2023-07-31T01:01:13;14.70;99.90
43087;DHT22;28708;52.224;6.924;2023-07-31T01:03:39;14.80;99.90
43087;DHT22;28708;52.224;6.924;2023-07-31T01:09:04;14.80;99.90
43087;DHT22;28708;52.224;6.924;2023-07-31T01:11:37;14.80;99.90
43087;DHT22;28708;52.224;6.924;2023-07-31T01:14:05;14.80;99.90
43087;DHT22;28708;52.224;6.924;2023-07-31T01:16:31;14.80;99.90
43087;DHT22;28708;52.224;6.924;2023-07-31T01:18:57;14.80;99.90
43087;DHT22;28708;52.224;6.924;2023-07-31T01:26:44;14.80;99.90
43087;DHT22;28708;52.224;6.924;2023-07-31T01:29:34;14.90;99.90
43087;DHT22;28708;52.224;6.924;2023-07-31T01:32:03;14.90;99.90
43087;DHT22;28708;52.224;6.924;2023-07-31T01:34:31;14.80;99.90
43087;DHT22;28708;52.224;6.924;2023-07-31T01:36:57;14.80;99.90
43087;DHT22;28708;52.224;6.924;2023-07-31T01:39:24;14.80;99.90
43087;DHT22;28708;52.224;6.924;2023-07-31T01:41:49;14.80;99.90
43087;DHT22;28708;52.224;6.924;2023-07-31T01:44:15;14.80;99.90
43087;DHT22;28708;52.224;6.924;2023-07-31T01:46:41;14.80;99.90
43087;DHT22;28708;52.224;6.924;2023-07-31T01:49:06;14.80;99.90
43087;DHT22;28708;52.224;6.924;2023-07-31T01:51:32;14.80;99.90
43087;DHT22;28708;52.224;6.924;2023-07-31T01:54:01;14.80;99.90
43087;DHT22;28708;52.224;6.924;2023-07-31T01:56:27;14.90;99.90
43087;DHT22;28708;52.224;6.924;2023-07-31T01:58:53;14.90;99.90
43087;DHT22;28708;52.224;6.924;2023-07-31T02:01:18;14.90;99.90
43087;DHT22;28708;52.224;6.924;2023-07-31T02:03:44;14.80;99.90
43087;DHT22;28708;52.224;6.924;2023-07-31T02:06:10;14.80;99.90
43087;DHT22;28708;52.224;6.924;2023-07-31T02:08:36;14.90;99.90
43087;DHT22;28708;52.224;6.924;2023-07-31T02:11:03;14.90;99.90
43087;DHT22;28708;52.224;6.924;2023-07-31T02:13:30;15.00;99.90
43087;DHT22;28708;52.224;6.924;2023-07-31T02:15:56;15.10;99.90
43087;DHT22;28708;52.224;6.924;2023-07-31T02:18:22;15.10;99.90
43087;DHT22;28708;52.224;6.924;2023-07-31T02:20:52;15.10;99.90
43087;DHT22;28708;52.224;6.924;2023-07-31T02:23:18;15.10;99.90
43087;DHT22;28708;52.224;6.924;2023-07-31T02:25:45;15.00;99.90
43087;DHT22;28708;52.224;6.924;2023-07-31T02:28:11;15.10;99.90
43087;DHT22;28708;52.224;6.924;2023-07-31T02:30:37;15.20;99.90
43087;DHT22;28708;52.224;6.924;2023-07-31T02:33:03;15.20;99.90
43087;DHT22;28708;52.224;6.924;2023-07-31T02:35:29;15.30;99.90
43087;DHT22;28708;52.224;6.924;2023-07-31T02:37:54;15.30;99.90
43087;DHT22;28708;52.224;6.924;2023-07-31T02:40:20;15.30;99.90
43087;DHT22;28708;52.224;6.924;2023-07-31T02:42:46;15.40;99.90
43087;DHT22;28708;52.224;6.924;2023-07-31T02:45:11;15.50;99.90
43087;DHT22;28708;52.224;6.924;2023-07-31T02:47:37;15.60;99.90
43087;DHT22;28708;52.224;6.924;2023-07-31T02:50:03;15.60;99.90
43087;DHT22;28708;52.224;6.924;2023-07-31T02:52:30;15.70;99.90
43087;DHT22;28708;52.224;6.924;2023-07-31T02:54:57;15.70;99.90
43087;DHT22;28708;52.224;6.924;2023-07-31T02:57:22;15.70;99.90
43087;DHT22;28708;52.224;6.924;2023-07-31T02:59:48;15.80;99.90
43087;DHT22;28708;52.224;6.924;2023-07-31T03:02:14;15.80;99.90
43087;DHT22;28708;52.224;6.924;2023-07-31T03:04:40;15.80;99.90
43087;DHT22;28708;52.224;6.924;2023-07-31T03:07:05;15.80;99.90
43087;DHT22;28708;52.224;6.924;2023-07-31T03:09:31;15.80;99.90
43087;DHT22;28708;52.224;6.924;2023-07-31T03:11:57;15.80;99.90
43087;DHT22;28708;52.224;6.924;2023-07-31T03:14:23;15.80;99.90
43087;DHT22;28708;52.224;6.924;2023-07-31T03:16:49;15.80;99.90
43087;DHT22;28708;52.224;6.924;2023-07-31T03:19:17;15.80;99.90
43087;DHT22;28708;52.224;6.924;2023-07-31T03:21:43;15.80;99.90
43087;DHT22;28708;52.224;6.924;2023-07-31T03:24:08;15.80;99.90
43087;DHT22;28708;52.224;6.924;2023-07-31T03:26:34;15.80;99.90
43087;DHT22;28708;52.224;6.924;2023-07-31T03:29:02;15.80;99.90
43087;DHT22;28708;52.224;6.924;2023-07-31T03:31:28;15.80;99.90
43087;DHT22;28708;52.224;6.924;2023-07-31T03:33:54;15.80;99.90
43087;DHT22;28708;52.224;6.924;2023-07-31T03:36:19;15.80;99.90
43087;DHT22;28708;52.224;6.924;2023-07-31T03:38:46;15.80;99.90
43087;DHT22;28708;52.224;6.924;2023-07-31T03:41:12;15.80;99.90
43087;DHT22;28708;52.224;6.924;2023-07-31T03:43:37;15.80;99.90
43087;DHT22;28708;52.224;6.924;2023-07-31T03:46:03;15.70;99.90
43087;DHT22;28708;52.224;6.924;2023-07-31T03:48:30;15.80;99.90
43087;DHT22;28708;52.224;6.924;2023-07-31T03:50:56;15.80;99.90
43087;DHT22;28708;52.224;6.924;2023-07-31T03:53:21;15.80;99.90
43087;DHT22;28708;52.224;6.924;2023-07-31T03:55:47;15.80;99.90
43087;DHT22;28708;52.224;6.924;2023-07-31T03:58:13;15.80;99.90
43087;DHT22;28708;52.224;6.924;2023-07-31T04:00:40;15.80;99.90
43087;DHT22;28708;52.224;6.924;2023-07-31T04:03:06;15.80;99.90
43087;DHT22;28708;52.224;6.924;2023-07-31T04:05:32;15.80;99.90
43087;DHT22;28708;52.224;6.924;2023-07-31T04:07:58;15.80;99.90
43087;DHT22;28708;52.224;6.924;2023-07-31T04:10:24;15.80;99.90
43087;DHT22;28708;52.224;6.924;2023-07-31T04:12:49;15.80;99.90
43087;DHT22;28708;52.224;6.924;2023-07-31T04:15:15;15.80;99.90
43087;DHT22;28708;52.224;6.924;2023-07-31T04:17:41;15.80;99.90
43087;DHT22;28708;52.224;6.924;2023-07-31T04:20:07;15.80;99.90
43087;DHT22;28708;52.224;6.924;2023-07-31T04:22:33;15.80;99.90
43087;DHT22;28708;52.224;6.924;2023-07-31T04:24:59;15.80;99.90
43087;DHT22;28708;52.224;6.924;2023-07-31T04:27:25;15.80;99.90
43087;DHT22;28708;52.224;6.924;2023-07-31T04:29:50;15.80;99.90
43087;DHT22;28708;52.224;6.924;2023-07-31T04:32:16;15.80;99.90
43087;DHT22;28708;52.224;6.924;2023-07-31T04:34:42;15.90;99.90
43087;DHT22;28708;52.224;6.924;2023-07-31T04:37:08;15.90;99.90
43087;DHT22;28708;52.224;6.924;2023-07-31T04:39:34;15.90;99.90
43087;DHT22;28708;52.224;6.924;2023-07-31T04:42:00;15.80;99.90
43087;DHT22;28708;52.224;6.924;2023-07-31T04:44:25;15.90;99.90
43087;DHT22;28708;52.224;6.924;2023-07-31T04:46:51;15.80;99.90
43087;DHT22;28708;52.224;6.924;2023-07-31T04:49:17;15.80;99.90
43087;DHT22;28708;52.224;6.924;2023-07-31T04:51:42;15.80;99.90
43087;DHT22;28708;52.224;6.924;2023-07-31T04:54:08;15.80;99.90
43087;DHT22;28708;52.224;6.924;2023-07-31T04:56:34;15.80;99.90
43087;DHT22;28708;52.224;6.924;2023-07-31T04:58:59;15.80;99.90
43087;DHT22;28708;52.224;6.924;2023-07-31T05:01:25;15.80;99.90
43087;DHT22;28708;52.224;6.924;2023-07-31T05:03:51;15.80;99.90
43087;DHT22;28708;52.224;6.924;2023-07-31T05:06:16;15.80;99.90
43087;DHT22;28708;52.224;6.924;2023-07-31T05:08:42;15.80;99.90
43087;DHT22;28708;52.224;6.924;2023-07-31T05:11:08;15.80;99.90
43087;DHT22;28708;52.224;6.924;2023-07-31T05:13:34;15.80;99.90
43087;DHT22;28708;52.224;6.924;2023-07-31T05:15:59;15.80;99.90
43087;DHT22;28708;52.224;6.924;2023-07-31T05:18:25;15.70;99.90
43087;DHT22;28708;52.224;6.924;2023-07-31T05:20:51;15.70;99.90
43087;DHT22;28708;52.224;6.924;2023-07-31T05:23:16;15.80;99.90
43087;DHT22;28708;52.224;6.924;2023-07-31T05:25:42;15.80;99.90
43087;DHT22;28708;52.224;6.924;2023-07-31T05:28:08;15.70;99.90
43087;DHT22;28708;52.224;6.924;2023-07-31T05:30:33;15.60;99.90
43087;DHT22;28708;52.224;6.924;2023-07-31T05:32:59;15.70;99.90
43087;DHT22;28708;52.224;6.924;2023-07-31T05:35:25;15.70;99.90
43087;DHT22;28708;52.224;6.924;2023-07-31T05:37:50;15.70;99.90
43087;DHT22;28708;52.224;6.924;2023-07-31T05:40:16;15.70;99.90
43087;DHT22;28708;52.224;6.924;2023-07-31T05:42:42;15.60;99.90
43087;DHT22;28708;52.224;6.924;2023-07-31T05:45:08;15.70;99.90
43087;DHT22;28708;52.224;6.924;2023-07-31T05:47:33;15.60;99.90
43087;DHT22;28708;52.224;6.924;2023-07-31T05:49:59;15.60;99.90
43087;DHT22;28708;52.224;6.924;2023-07-31T05:52:25;15.60;99.90
43087;DHT22;28708;52.224;6.924;2023-07-31T05:54:50;15.60;99.90
43087;DHT22;28708;52.224;6.924;2023-07-31T05:57:17;15.60;99.90
43087;DHT22;28708;52.224;6.924;2023-07-31T05:59:42;15.70;99.90
43087;DHT22;28708;52.224;6.924;2023-07-31T06:02:08;15.70;99.90
43087;DHT22;28708;52.224;6.924;2023-07-31T06:04:34;15.70;99.90
43087;DHT22;28708;52.224;6.924;2023-07-31T06:07:00;15.80;99.90
43087;DHT22;28708;52.224;6.924;2023-07-31T06:09:26;15.80;99.90
43087;DHT22;28708;52.224;6.924;2023-07-31T06:11:51;15.70;99.90
43087;DHT22;28708;52.224;6.924;2023-07-31T06:14:17;15.80;99.90
43087;DHT22;28708;52.224;6.924;2023-07-31T06:16:44;15.80;99.90
43087;DHT22;28708;52.224;6.924;2023-07-31T06:19:10;15.90;99.90
43087;DHT22;28708;52.224;6.924;2023-07-31T06:21:36;16.00;99.90
43087;DHT22;28708;52.224;6.924;2023-07-31T06:24:03;16.00;99.90
43087;DHT22;28708;52.224;6.924;2023-07-31T06:26:29;16.00;99.90
43087;DHT22;28708;52.224;6.924;2023-07-31T06:28:55;16.00;99.90
43087;DHT22;28708;52.224;6.924;2023-07-31T06:31:21;16.00;99.90
43087;DHT22;28708;52.224;6.924;2023-07-31T06:33:49;16.00;99.90
43087;DHT22;28708;52.224;6.924;2023-07-31T06:36:15;15.90;99.90
43087;DHT22;28708;52.224;6.924;2023-07-31T06:38:41;15.90;99.90
43087;DHT22;28708;52.224;6.924;2023-07-31T06:41:06;15.90;99.90
43087;DHT22;28708;52.224;6.924;2023-07-31T06:43:32;15.90;99.90
43087;DHT22;28708;52.224;6.924;2023-07-31T06:45:57;15.80;99.90
43087;DHT22;28708;52.224;6.924;2023-07-31T06:48:23;15.80;99.90
43087;DHT22;28708;52.224;6.924;2023-07-31T06:50:49;15.80;99.90
43087;DHT22;28708;52.224;6.924;2023-07-31T06:53:14;15.80;99.90
43087;DHT22;28708;52.224;6.924;2023-07-31T06:55:40;15.80;99.90
43087;DHT22;28708;52.224;6.924;2023-07-31T06:58:06;15.70;99.90
43087;DHT22;28708;52.224;6.924;2023-07-31T07:00:32;15.70;99.90
43087;DHT22;28708;52.224;6.924;2023-07-31T07:02:57;15.70;99.90
43087;DHT22;28708;52.224;6.924;2023-07-31T07:05:23;15.80;99.90
43087;DHT22;28708;52.224;6.924;2023-07-31T07:07:50;15.80;99.90
43087;DHT22;28708;52.224;6.924;2023-07-31T07:10:17;15.80;99.90
43087;DHT22;28708;52.224;6.924;2023-07-31T07:12:42;15.80;99.90
43087;DHT22;28708;52.224;6.924;2023-07-31T07:15:08;15.80;99.90
43087;DHT22;28708;52.224;6.924;2023-07-31T07:17:34;15.90;99.90
43087;DHT22;28708;52.224;6.924;2023-07-31T07:20:00;15.90;99.90
43087;DHT22;28708;52.224;6.924;2023-07-31T07:22:26;15.90;99.90
43087;DHT22;28708;52.224;6.924;2023-07-31T07:24:53;15.90;99.90
43087;DHT22;28708;52.224;6.924;2023-07-31T07:27:18;16.00;99.90
43087;DHT22;28708;52.224;6.924;2023-07-31T07:29:45;15.90;99.90
43087;DHT22;28708;52.224;6.924;2023-07-31T07:32:11;16.00;99.90
43087;DHT22;28708;52.224;6.924;2023-07-31T07:34:38;16.00;99.90
43087;DHT22;28708;52.224;6.924;2023-07-31T07:37:04;16.10;99.90
43087;DHT22;28708;52.224;6.924;2023-07-31T07:39:29;16.10;99.90
43087;DHT22;28708;52.224;6.924;2023-07-31T07:41:55;16.10;99.90
43087;DHT22;28708;52.224;6.924;2023-07-31T07:44:21;16.20;99.90
43087;DHT22;28708;52.224;6.924;2023-07-31T07:46:46;16.30;99.90
43087;DHT22;28708;52.224;6.924;2023-07-31T07:49:12;16.20;99.90
43087;DHT22;28708;52.224;6.924;2023-07-31T07:51:38;16.30;99.90
43087;DHT22;28708;52.224;6.924;2023-07-31T07:54:04;16.40;99.90
43087;DHT22;28708;52.224;6.924;2023-07-31T07:56:29;16.30;99.90
43087;DHT22;28708;52.224;6.924;2023-07-31T07:58:55;16.30;99.90
43087;DHT22;28708;52.224;6.924;2023-07-31T08:01:21;16.30;99.90
43087;DHT22;28708;52.224;6.924;2023-07-31T08:03:47;16.30;99.90
43087;DHT22;28708;52.224;6.924;2023-07-31T08:06:13;16.30;99.90
43087;DHT22;28708;52.224;6.924;2023-07-31T08:08:39;16.30;99.90
43087;DHT22;28708;52.224;6.924;2023-07-31T08:11:05;16.30;99.90
43087;DHT22;28708;52.224;6.924;2023-07-31T08:13:31;16.30;99.90
43087;DHT22;28708;52.224;6.924;2023-07-31T08:15:57;16.30;99.90
43087;DHT22;28708;52.224;6.924;2023-07-31T08:18:22;16.30;99.90
43087;DHT22;28708;52.224;6.924;2023-07-31T08:20:48;16.30;99.90
43087;DHT22;28708;52.224;6.924;2023-07-31T08:23:14;16.40;99.90
43087;DHT22;28708;52.224;6.924;2023-07-31T08:25:40;16.40;99.90
43087;DHT22;28708;52.224;6.924;2023-07-31T08:28:06;16.40;99.90
43087;DHT22;28708;52.224;6.924;2023-07-31T08:30:32;16.40;99.90
43087;DHT22;28708;52.224;6.924;2023-07-31T08:32:59;16.40;99.90
43087;DHT22;28708;52.224;6.924;2023-07-31T08:35:25;16.50;99.90
43087;DHT22;28708;52.224;6.924;2023-07-31T08:37:51;16.40;99.90
43087;DHT22;28708;52.224;6.924;2023-07-31T08:40:17;16.50;99.90
43087;DHT22;28708;52.224;6.924;2023-07-31T08:42:48;16.60;99.90
43087;DHT22;28708;52.224;6.924;2023-07-31T08:45:19;16.50;99.90
43087;DHT22;28708;52.224;6.924;2023-07-31T08:47:49;16.60;99.90
43087;DHT22;28708;52.224;6.924;2023-07-31T08:50:17;16.50;99.90
43087;DHT22;28708;52.224;6.924;2023-07-31T08:52:45;16.50;99.90
43087;DHT22;28708;52.224;6.924;2023-07-31T08:55:11;16.60;99.90
43087;DHT22;28708;52.224;6.924;2023-07-31T08:57:38;16.60;99.90
43087;DHT22;28708;52.224;6.924;2023-07-31T09:00:05;16.60;99.90
43087;DHT22;28708;52.224;6.924;2023-07-31T09:02:39;16.60;99.90
43087;DHT22;28708;52.224;6.924;2023-07-31T09:05:07;16.60;99.90
43087;DHT22;28708;52.224;6.924;2023-07-31T09:07:36;16.60;99.90
43087;DHT22;28708;52.224;6.924;2023-07-31T09:10:03;16.60;99.90
43087;DHT22;28708;52.224;6.924;2023-07-31T09:12:30;16.60;99.90
43087;DHT22;28708;52.224;6.924;2023-07-31T09:14:57;16.70;99.90
43087;DHT22;28708;52.224;6.924;2023-07-31T09:17:33;16.60;99.90
43087;DHT22;28708;52.224;6.924;2023-07-31T09:20:20;16.60;99.90
43087;DHT22;28708;52.224;6.924;2023-07-31T09:22:47;16.70;99.90
43087;DHT22;28708;52.224;6.924;2023-07-31T09:27:57;16.70;99.90
43087;DHT22;28708;52.224;6.924;2023-07-31T09:30:24;16.80;99.90
43087;DHT22;28708;52.224;6.924;2023-07-31T09:32:50;16.80;99.90
43087;DHT22;28708;52.224;6.924;2023-07-31T09:37:57;16.80;99.90
43087;DHT22;28708;52.224;6.924;2023-07-31T09:42:56;16.80;99.90
43087;DHT22;28708;52.224;6.924;2023-07-31T09:45:23;16.90;99.90
43087;DHT22;28708;52.224;6.924;2023-07-31T09:47:49;16.90;99.90
43087;DHT22;28708;52.224;6.924;2023-07-31T09:50:15;16.80;99.90
43087;DHT22;28708;52.224;6.924;2023-07-31T09:52:43;16.80;99.90
43087;DHT22;28708;52.224;6.924;2023-07-31T09:55:10;16.90;99.90
43087;DHT22;28708;52.224;6.924;2023-07-31T09:57:44;16.90;99.90
43087;DHT22;28708;52.224;6.924;2023-07-31T10:00:11;16.90;99.90
43087;DHT22;28708;52.224;6.924;2023-07-31T10:02:38;16.90;99.90
43087;DHT22;28708;52.224;6.924;2023-07-31T10:05:04;17.00;99.90
43087;DHT22;28708;52.224;6.924;2023-07-31T10:07:31;17.00;99.90
43087;DHT22;28708;52.224;6.924;2023-07-31T10:10:00;17.00;99.90
43087;DHT22;28708;52.224;6.924;2023-07-31T10:12:27;17.10;99.90
43087;DHT22;28708;52.224;6.924;2023-07-31T10:14:56;17.00;99.90
43087;DHT22;28708;52.224;6.924;2023-07-31T10:17:22;17.00;99.90
43087;DHT22;28708;52.224;6.924;2023-07-31T10:19:49;17.10;99.90
43087;DHT22;28708;52.224;6.924;2023-07-31T10:22:16;17.10;99.90
43087;DHT22;28708;52.224;6.924;2023-07-31T10:24:52;17.10;99.90
43087;DHT22;28708;52.224;6.924;2023-07-31T10:27:20;17.10;99.90
43087;DHT22;28708;52.224;6.924;2023-07-31T10:29:47;17.00;99.90
43087;DHT22;28708;52.224;6.924;2023-07-31T10:32:14;17.00;99.90
43087;DHT22;28708;52.224;6.924;2023-07-31T10:34:41;17.00;99.90
43087;DHT22;28708;52.224;6.924;2023-07-31T10:40:03;17.00;99.90
43087;DHT22;28708;52.224;6.924;2023-07-31T10:42:37;17.00;99.90
43087;DHT22;28708;52.224;6.924;2023-07-31T10:45:05;17.10;99.90
43087;DHT22;28708;52.224;6.924;2023-07-31T10:47:37;17.10;99.90
43087;DHT22;28708;52.224;6.924;2023-07-31T10:50:20;17.10;99.90
43087;DHT22;28708;52.224;6.924;2023-07-31T10:52:47;17.10;99.90
43087;DHT22;28708;52.224;6.924;2023-07-31T10:55:25;17.10;99.90
43087;DHT22;28708;52.224;6.924;2023-07-31T10:57:52;17.10;99.90
43087;DHT22;28708;52.224;6.924;2023-07-31T11:02:58;17.20;99.90
43087;DHT22;28708;52.224;6.924;2023-07-31T11:08:23;17.30;99.90
43087;DHT22;28708;52.224;6.924;2023-07-31T11:13:48;17.30;99.90
43087;DHT22;28708;52.224;6.924;2023-07-31T11:16:22;17.30;99.90
43087;DHT22;28708;52.224;6.924;2023-07-31T11:18:49;17.20;99.90
43087;DHT22;28708;52.224;6.924;2023-07-31T11:21:17;17.20;99.90
43087;DHT22;28708;52.224;6.924;2023-07-31T11:23:51;17.10;99.90
43087;DHT22;28708;52.224;6.924;2023-07-31T11:26:18;17.30;99.90
43087;DHT22;28708;52.224;6.924;2023-07-31T11:28:46;17.30;99.90
43087;DHT22;28708;52.224;6.924;2023-07-31T11:31:13;17.30;99.90
43087;DHT22;28708;52.224;6.924;2023-07-31T11:33:39;17.30;99.90
43087;DHT22;28708;52.224;6.924;2023-07-31T11:36:05;17.20;99.90
43087;DHT22;28708;52.224;6.924;2023-07-31T11:38:32;17.20;99.90
43087;DHT22;28708;52.224;6.924;2023-07-31T11:41:00;17.30;99.90
43087;DHT22;28708;52.224;6.924;2023-07-31T11:43:26;17.30;99.90
43087;DHT22;28708;52.224;6.924;2023-07-31T11:45:57;17.30;99.90
43087;DHT22;28708;52.224;6.924;2023-07-31T11:48:28;17.40;99.90
43087;DHT22;28708;52.224;6.924;2023-07-31T11:50:57;17.50;99.90
43087;DHT22;28708;52.224;6.924;2023-07-31T11:55:52;17.70;99.90
43087;DHT22;28708;52.224;6.924;2023-07-31T11:58:20;17.60;99.90
43087;DHT22;28708;52.224;6.924;2023-07-31T12:00:46;17.80;99.90
43087;DHT22;28708;52.224;6.924;2023-07-31T12:03:12;17.80;99.90
43087;DHT22;28708;52.224;6.924;2023-07-31T12:05:38;17.80;99.90
43087;DHT22;28708;52.224;6.924;2023-07-31T12:08:09;17.80;99.90
43087;DHT22;28708;52.224;6.924;2023-07-31T12:10:36;18.00;99.90
43087;DHT22;28708;52.224;6.924;2023-07-31T12:15:40;18.00;99.90
43087;DHT22;28708;52.224;6.924;2023-07-31T12:18:09;18.20;99.90
43087;DHT22;28708;52.224;6.924;2023-07-31T12:20:35;18.20;99.90
43087;DHT22;28708;52.224;6.924;2023-07-31T12:23:01;18.10;99.90
43087;DHT22;28708;52.224;6.924;2023-07-31T12:25:32;18.10;99.90
43087;DHT22;28708;52.224;6.924;2023-07-31T12:28:03;18.00;99.90
43087;DHT22;28708;52.224;6.924;2023-07-31T12:30:33;18.00;99.90
43087;DHT22;28708;52.224;6.924;2023-07-31T12:33:06;17.90;99.90
43087;DHT22;28708;52.224;6.924;2023-07-31T12:35:35;17.90;99.90
43087;DHT22;28708;52.224;6.924;2023-07-31T12:38:02;18.00;99.90
43087;DHT22;28708;52.224;6.924;2023-07-31T12:40:27;17.90;99.90
43087;DHT22;28708;52.224;6.924;2023-07-31T12:42:53;17.80;99.90
43087;DHT22;28708;52.224;6.924;2023-07-31T12:45:19;17.80;99.90
43087;DHT22;28708;52.224;6.924;2023-07-31T12:47:46;17.80;99.90
43087;DHT22;28708;52.224;6.924;2023-07-31T12:50:12;17.70;99.90
43087;DHT22;28708;52.224;6.924;2023-07-31T12:52:38;17.60;99.90
43087;DHT22;28708;52.224;6.924;2023-07-31T12:55:04;17.60;99.90
43087;DHT22;28708;52.224;6.924;2023-07-31T12:57:30;17.60;99.90
43087;DHT22;28708;52.224;6.924;2023-07-31T12:59:56;17.70;99.90
43087;DHT22;28708;52.224;6.924;2023-07-31T13:02:22;17.80;99.90
43087;DHT22;28708;52.224;6.924;2023-07-31T13:04:49;17.80;99.90
43087;DHT22;28708;52.224;6.924;2023-07-31T13:07:15;17.70;99.90
43087;DHT22;28708;52.224;6.924;2023-07-31T13:09:41;17.80;99.90
43087;DHT22;28708;52.224;6.924;2023-07-31T13:12:07;17.80;99.90
43087;DHT22;28708;52.224;6.924;2023-07-31T13:14:32;17.80;99.90
43087;DHT22;28708;52.224;6.924;2023-07-31T13:16:58;17.90;99.90
43087;DHT22;28708;52.224;6.924;2023-07-31T13:19:24;18.00;99.90
43087;DHT22;28708;52.224;6.924;2023-07-31T13:21:50;18.10;99.90
43087;DHT22;28708;52.224;6.924;2023-07-31T13:24:15;18.20;99.90
43087;DHT22;28708;52.224;6.924;2023-07-31T13:26:41;18.30;99.90
43087;DHT22;28708;52.224;6.924;2023-07-31T13:29:07;18.30;99.90
43087;DHT22;28708;52.224;6.924;2023-07-31T13:31:32;18.30;99.90
43087;DHT22;28708;52.224;6.924;2023-07-31T13:33:58;18.30;99.90
43087;DHT22;28708;52.224;6.924;2023-07-31T13:36:24;18.30;99.90
43087;DHT22;28708;52.224;6.924;2023-07-31T13:38:49;18.30;99.90
43087;DHT22;28708;52.224;6.924;2023-07-31T13:41:15;18.30;99.90
43087;DHT22;28708;52.224;6.924;2023-07-31T13:43:41;18.30;99.90
43087;DHT22;28708;52.224;6.924;2023-07-31T13:46:06;18.30;99.90
43087;DHT22;28708;52.224;6.924;2023-07-31T13:48:36;18.40;99.90
43087;DHT22;28708;52.224;6.924;2023-07-31T13:51:02;18.40;99.90
43087;DHT22;28708;52.224;6.924;2023-07-31T13:53:28;18.40;99.90
43087;DHT22;28708;52.224;6.924;2023-07-31T13:55:53;18.40;99.90
43087;DHT22;28708;52.224;6.924;2023-07-31T13:58:21;18.30;99.90
43087;DHT22;28708;52.224;6.924;2023-07-31T14:00:46;18.30;99.90
43087;DHT22;28708;52.224;6.924;2023-07-31T14:03:12;18.20;99.90
43087;DHT22;28708;52.224;6.924;2023-07-31T14:05:38;18.20;99.90
43087;DHT22;28708;52.224;6.924;2023-07-31T14:08:03;18.40;99.90
43087;DHT22;28708;52.224;6.924;2023-07-31T14:10:29;18.50;99.90
43087;DHT22;28708;52.224;6.924;2023-07-31T14:12:55;18.50;99.90
43087;DHT22;28708;52.224;6.924;2023-07-31T14:15:20;18.50;99.90
43087;DHT22;28708;52.224;6.924;2023-07-31T14:17:46;18.50;99.90
43087;DHT22;28708;52.224;6.924;2023-07-31T14:20:12;18.70;99.90
43087;DHT22;28708;52.224;6.924;2023-07-31T14:22:38;18.80;99.90
43087;DHT22;28708;52.224;6.924;2023-07-31T14:25:04;19.00;99.90
43087;DHT22;28708;52.224;6.924;2023-07-31T14:27:30;19.00;99.90
43087;DHT22;28708;52.224;6.924;2023-07-31T14:29:56;18.80;99.90
43087;DHT22;28708;52.224;6.924;2023-07-31T14:32:22;18.80;99.90
43087;DHT22;28708;52.224;6.924;2023-07-31T14:34:49;18.90;99.90
43087;DHT22;28708;52.224;6.924;2023-07-31T14:37:14;18.80;99.90
43087;DHT22;28708;52.224;6.924;2023-07-31T14:39:40;18.80;99.90
43087;DHT22;28708;52.224;6.924;2023-07-31T14:42:06;18.70;99.90
43087;DHT22;28708;52.224;6.924;2023-07-31T14:44:31;18.80;99.90
43087;DHT22;28708;52.224;6.924;2023-07-31T14:46:57;18.80;99.90
43087;DHT22;28708;52.224;6.924;2023-07-31T14:49:23;18.70;99.90
43087;DHT22;28708;52.224;6.924;2023-07-31T14:51:49;18.60;99.90
43087;DHT22;28708;52.224;6.924;2023-07-31T14:54:14;18.50;99.90
43087;DHT22;28708;52.224;6.924;2023-07-31T14:56:40;18.50;99.90
43087;DHT22;28708;52.224;6.924;2023-07-31T14:59:06;18.40;99.90
43087;DHT22;28708;52.224;6.924;2023-07-31T15:01:33;18.20;99.90
43087;DHT22;28708;52.224;6.924;2023-07-31T15:03:59;18.00;99.90
43087;DHT22;28708;52.224;6.924;2023-07-31T15:06:24;18.00;99.90
43087;DHT22;28708;52.224;6.924;2023-07-31T15:08:50;17.90;99.90
43087;DHT22;28708;52.224;6.924;2023-07-31T15:11:16;17.80;99.90
43087;DHT22;28708;52.224;6.924;2023-07-31T15:13:41;17.80;99.90
43087;DHT22;28708;52.224;6.924;2023-07-31T15:16:07;17.70;99.90
43087;DHT22;28708;52.224;6.924;2023-07-31T15:18:33;17.80;99.90
43087;DHT22;28708;52.224;6.924;2023-07-31T15:20:58;17.80;99.90
43087;DHT22;28708;52.224;6.924;2023-07-31T15:23:24;17.80;99.90
43087;DHT22;28708;52.224;6.924;2023-07-31T15:25:51;17.80;99.90
43087;DHT22;28708;52.224;6.924;2023-07-31T15:28:18;17.80;99.90
43087;DHT22;28708;52.224;6.924;2023-07-31T15:30:44;17.80;99.90
43087;DHT22;28708;52.224;6.924;2023-07-31T15:33:10;17.80;99.90
43087;DHT22;28708;52.224;6.924;2023-07-31T15:35:36;17.80;99.90
43087;DHT22;28708;52.224;6.924;2023-07-31T15:38:01;17.80;99.90
43087;DHT22;28708;52.224;6.924;2023-07-31T15:40:27;17.80;99.90
43087;DHT22;28708;52.224;6.924;2023-07-31T15:42:53;17.80;99.90
43087;DHT22;28708;52.224;6.924;2023-07-31T15:45:18;17.90;99.90
43087;DHT22;28708;52.224;6.924;2023-07-31T15:47:44;17.90;99.90
43087;DHT22;28708;52.224;6.924;2023-07-31T15:50:10;17.90;99.90
43087;DHT22;28708;52.224;6.924;2023-07-31T15:52:36;17.90;99.90
43087;DHT22;28708;52.224;6.924;2023-07-31T15:55:02;17.90;99.90
43087;DHT22;28708;52.224;6.924;2023-07-31T15:57:28;17.80;99.90